Time;durP1;ratioP1;P1;durP2;ratioP2;P2;SDS_P1;SDS_P2;PMS_P1;PMS_P2;Temp;Humidity;BMP_temperature;BMP_pressure;BME280_temperature;BME280_humidity;BME280_pressure;Samples;Min_cycle;Max_cycle;Signal;HPM_P1;HPM_P2
2023/11/11 00:00:16;;;;;;;;;;;;;;;4.83;69.66;100110.25;5089951;28;19920;-68
2023/11/11 00:02:42;;;;;;;;;;;;;;;4.80;69.87;100102.44;5088705;28;19924;-68
2023/11/11 00:05:08;;;;;;;;;;;;;;;4.76;69.28;100111.81;5091405;28;19920;-67
2023/11/11 00:07:34;;;;;;;;;;;;;;;4.77;69.49;100108.38;5087396;28;19920;-68
2023/11/11 00:10:00;;;;;;;;;;;;;;;4.80;69.99;100110.16;5091243;28;19972;-68
2023/11/11 00:12:26;;;;;;;;;;;;;;;4.81;68.99;100104.19;5077478;28;19920;-67
2023/11/11 00:14:52;;;;;;;;;;;;;;;4.87;69.48;100104.28;5088521;28;19924;-68
2023/11/11 00:17:18;;;;;;;;;;;;;;;4.96;70.01;100103.59;5124700;27;20904;-68
2023/11/11 00:19:44;;;;;;;;;;;;;;;5.05;70.04;100105.50;5072851;28;19920;-68
2023/11/11 00:22:11;;;;;;;;;;;;;;;5.12;69.91;100091.84;5089987;28;19930;-68
2023/11/11 00:24:38;;;;;;;;;;;;;;;5.18;69.97;100091.09;5091307;28;20293;-67
2023/11/11 00:27:04;;;;;;;;;;;;;;;5.21;69.67;100093.72;5070774;28;20039;-67
2023/11/11 00:29:30;;;;;;;;;;;;;;;5.21;69.49;100091.13;5072527;28;20404;-68
2023/11/11 00:31:56;;;;;;;;;;;;;;;5.25;69.21;100085.19;5074065;28;19939;-68
2023/11/11 00:34:22;;;;;;;;;;;;;;;5.22;69.48;100091.19;5108131;28;19939;-67
2023/11/11 00:36:50;;;;;;;;;;;;;;;5.16;69.87;100090.19;5054240;28;19926;-67
2023/11/11 00:39:16;;;;;;;;;;;;;;;5.11;69.08;100084.94;5083490;28;20054;-67
2023/11/11 00:41:43;;;;;;;;;;;;;;;5.06;69.25;100094.31;5056506;28;19924;-68
2023/11/11 00:44:09;;;;;;;;;;;;;;;5.03;69.25;100094.28;5086908;28;19973;-68
2023/11/11 00:46:37;;;;;;;;;;;;;;;4.96;69.44;100085.56;5053341;28;20000;-67
2023/11/11 00:49:03;;;;;;;;;;;;;;;4.96;69.23;100093.28;5128799;27;19924;-68
2023/11/11 00:51:28;;;;;;;;;;;;;;;4.96;69.35;100101.88;5059444;28;20336;-67
2023/11/11 00:53:55;;;;;;;;;;;;;;;4.94;69.19;100089.81;5070249;28;19920;-68
2023/11/11 00:56:22;;;;;;;;;;;;;;;4.96;69.17;100089.00;5073733;28;19923;-68
2023/11/11 00:58:48;;;;;;;;;;;;;;;4.96;69.54;100083.81;5095126;28;19942;-68
2023/11/11 01:01:13;;;;;;;;;;;;;;;4.99;69.44;100083.00;5078044;28;20023;-68
2023/11/11 01:03:39;;;;;;;;;;;;;;;5.06;69.21;100078.84;5074063;28;20022;-68
2023/11/11 01:06:06;;;;;;;;;;;;;;;5.12;69.70;100082.41;5074064;28;19962;-68
2023/11/11 01:08:32;;;;;;;;;;;;;;;5.24;69.85;100080.88;5128760;27;20752;-68
2023/11/11 01:10:59;;;;;;;;;;;;;;;5.31;69.46;100074.97;5077874;28;19963;-68
2023/11/11 01:13:26;;;;;;;;;;;;;;;5.38;69.27;100079.41;5085502;28;20024;-68
2023/11/11 01:15:52;;;;;;;;;;;;;;;5.44;68.94;100081.22;5058300;28;20438;-69
2023/11/11 01:18:19;;;;;;;;;;;;;;;5.52;69.15;100083.91;5075555;28;20290;-68
2023/11/11 01:20:45;;;;;;;;;;;;;;;5.54;69.08;100077.94;5074851;28;19930;-67
2023/11/11 01:23:11;;;;;;;;;;;;;;;5.60;69.12;100082.34;5061865;28;19977;-67
2023/11/11 01:25:37;;;;;;;;;;;;;;;5.62;68.80;100075.50;5095419;28;20073;-68
2023/11/11 01:28:03;;;;;;;;;;;;;;;5.63;68.71;100076.34;5093841;28;19927;-68
2023/11/11 01:30:29;;;;;;;;;;;;;;;5.63;68.68;100076.34;5074927;28;19919;-68
2023/11/11 01:32:55;;;;;;;;;;;;;;;5.59;68.59;100070.28;5073809;28;19920;-67
2023/11/11 01:35:21;;;;;;;;;;;;;;;5.52;68.79;100079.59;5077545;28;19924;-68
2023/11/11 01:37:47;;;;;;;;;;;;;;;5.47;68.64;100077.81;5092338;28;19927;-68
2023/11/11 01:40:14;;;;;;;;;;;;;;;5.38;68.67;100076.84;5092105;28;19927;-68
2023/11/11 01:42:40;;;;;;;;;;;;;;;5.33;69.07;100072.41;5092546;28;20367;-67
2023/11/11 01:45:05;;;;;;;;;;;;;;;5.32;68.91;100076.72;5061839;28;19977;-68
2023/11/11 01:47:32;;;;;;;;;;;;;;;5.36;69.24;100069.88;5091213;28;19920;-67
2023/11/11 01:49:58;;;;;;;;;;;;;;;5.40;68.60;100074.25;5110238;27;19927;-68
2023/11/11 01:52:24;;;;;;;;;;;;;;;5.40;68.52;100064.81;5073760;28;20302;-68
2023/11/11 01:54:49;;;;;;;;;;;;;;;5.42;68.69;100070.00;5075084;28;19927;-68
2023/11/11 01:57:15;;;;;;;;;;;;;;;5.42;68.91;100073.44;5109382;27;20003;-69
2023/11/11 01:59:41;;;;;;;;;;;;;;;5.43;68.65;100064.00;5108398;27;20390;-68
2023/11/11 02:02:08;;;;;;;;;;;;;;;5.43;68.63;100066.56;5090406;28;19928;-68
2023/11/11 02:04:35;;;;;;;;;;;;;;;5.45;68.93;100066.59;5092387;28;19998;-67
2023/11/11 02:07:01;;;;;;;;;;;;;;;5.43;68.25;100061.41;5089281;28;20602;-67
2023/11/11 02:09:27;;;;;;;;;;;;;;;5.43;69.19;100071.75;5082262;28;19920;-68
2023/11/11 02:11:56;;;;;;;;;;;;;;;5.43;68.85;100067.44;5088502;28;19923;-68
2023/11/11 02:14:23;;;;;;;;;;;;;;;5.46;68.74;100071.78;5085314;28;19924;-68
2023/11/11 02:16:48;;;;;;;;;;;;;;;5.50;69.17;100068.41;5090208;28;19920;-68
2023/11/11 02:19:14;;;;;;;;;;;;;;;5.49;68.96;100063.22;5070525;28;20431;-68
2023/11/11 02:21:41;;;;;;;;;;;;;;;5.49;68.24;100058.94;5057463;28;20026;-68
2023/11/11 02:24:07;;;;;;;;;;;;;;;5.51;68.91;100067.56;5072064;28;19920;-67
2023/11/11 02:26:33;;;;;;;;;;;;;;;5.54;68.82;100051.25;5089937;28;19961;-68
2023/11/11 02:28:59;;;;;;;;;;;;;;;5.60;68.62;100058.22;5093212;28;19927;-68
2023/11/11 02:31:25;;;;;;;;;;;;;;;5.61;68.29;100053.09;5112223;27;19928;-68
2023/11/11 02:33:51;;;;;;;;;;;;;;;5.61;68.49;100054.78;5124748;27;19927;-68
2023/11/11 02:36:17;;;;;;;;;;;;;;;5.59;68.86;100059.94;5072942;28;20023;-67
2023/11/11 02:38:44;;;;;;;;;;;;;;;5.61;68.35;100058.25;5089302;28;19923;-69
2023/11/11 02:41:10;;;;;;;;;;;;;;;5.67;68.29;100048.00;5127828;27;19927;-68
2023/11/11 02:43:35;;;;;;;;;;;;;;;5.68;68.58;100052.31;5088920;28;19919;-68
2023/11/11 02:46:01;;;;;;;;;;;;;;;5.72;68.41;100048.09;5109038;27;21541;-66
2023/11/11 02:48:28;;;;;;;;;;;;;;;5.74;68.55;100051.53;5090803;28;19920;-68
2023/11/11 02:50:57;;;;;;;;;;;;;;;5.72;68.19;100056.69;5074707;28;19923;-68
2023/11/11 02:53:23;;;;;;;;;;;;;;;5.69;68.11;100055.78;5095190;28;20162;-68
2023/11/11 02:55:49;;;;;;;;;;;;;;;5.70;67.87;100052.38;5073643;28;19934;-67
2023/11/11 02:58:15;;;;;;;;;;;;;;;5.72;68.17;100048.94;5079146;28;19920;-67
2023/11/11 03:00:43;;;;;;;;;;;;;;;5.77;68.48;100058.47;5091016;28;21287;-68
2023/11/11 03:03:09;;;;;;;;;;;;;;;5.78;68.66;100048.16;5091559;28;20071;-67
2023/11/11 03:05:35;;;;;;;;;;;;;;;5.77;67.63;100048.16;5092182;28;19987;-67
2023/11/11 03:08:03;;;;;;;;;;;;;;;5.73;67.86;100055.84;5091447;28;19924;-67
2023/11/11 03:10:29;;;;;;;;;;;;;;;5.73;68.28;100053.28;5093271;28;19927;-68
2023/11/11 03:12:55;;;;;;;;;;;;;;;5.74;68.58;100054.13;5089478;28;19920;-68
2023/11/11 03:15:22;;;;;;;;;;;;;;;5.77;68.43;100053.31;5093101;28;20639;-69
2023/11/11 03:17:49;;;;;;;;;;;;;;;5.75;68.52;100053.28;5092832;28;19919;-68
2023/11/11 03:20:15;;;;;;;;;;;;;;;5.76;68.35;100056.75;5093105;28;20003;-68
2023/11/11 03:22:41;;;;;;;;;;;;;;;5.78;68.13;100053.31;5089853;28;20065;-69
2023/11/11 03:25:08;;;;;;;;;;;;;;;5.80;68.49;100043.03;5088495;28;20335;-68
2023/11/11 03:27:34;;;;;;;;;;;;;;;5.75;68.33;100040.38;5088693;28;19923;-68
2023/11/11 03:30:00;;;;;;;;;;;;;;;5.77;67.94;100041.25;5089816;28;19919;-67
2023/11/11 03:32:26;;;;;;;;;;;;;;;5.78;68.10;100043.00;5088747;28;20011;-67
2023/11/11 03:34:52;;;;;;;;;;;;;;;5.81;68.10;100044.78;5073640;28;19935;-68
2023/11/11 03:37:18;;;;;;;;;;;;;;;5.79;67.84;100042.16;5090984;28;19950;-68
2023/11/11 03:39:44;;;;;;;;;;;;;;;5.81;67.94;100042.19;5088503;28;19924;-68
2023/11/11 03:42:10;;;;;;;;;;;;;;;5.77;68.03;100041.25;5076102;28;19920;-70
2023/11/11 03:44:36;;;;;;;;;;;;;;;5.76;68.21;100052.44;5073103;28;19924;-67
2023/11/11 03:47:02;;;;;;;;;;;;;;;5.73;68.28;100040.34;5075468;28;21392;-68
2023/11/11 03:49:28;;;;;;;;;;;;;;;5.72;68.10;100045.50;5126498;27;19927;-68
2023/11/11 03:51:54;;;;;;;;;;;;;;;5.72;68.22;100051.53;5089341;28;19924;-68
2023/11/11 03:54:21;;;;;;;;;;;;;;;5.72;67.99;100041.22;5125196;27;19919;-67
2023/11/11 03:56:48;;;;;;;;;;;;;;;5.71;67.87;100048.94;5088909;28;20383;-68
2023/11/11 03:59:14;;;;;;;;;;;;;;;5.68;68.40;100049.75;5090538;28;20262;-69
2023/11/11 04:01:40;;;;;;;;;;;;;;;5.68;68.19;100049.75;5090549;28;20318;-67
2023/11/11 04:04:08;;;;;;;;;;;;;;;5.68;67.80;100054.91;5089514;28;20018;-68
2023/11/11 04:06:35;;;;;;;;;;;;;;;5.68;68.71;100060.06;5089849;28;19935;-67
2023/11/11 04:09:01;;;;;;;;;;;;;;;5.74;68.54;100061.88;5078228;28;19923;-68
2023/11/11 04:11:27;;;;;;;;;;;;;;;5.76;67.91;100062.75;5088255;28;20297;-68
2023/11/11 04:13:55;;;;;;;;;;;;;;;5.75;68.24;100055.88;5072144;28;20617;-67
2023/11/11 04:16:53;;;;;;;;;;;;;;;5.76;68.16;100065.34;5094616;28;19991;-68
2023/11/11 04:19:19;;;;;;;;;;;;;;;5.72;67.77;100061.88;5094222;28;20341;-69
2023/11/11 04:21:49;;;;;;;;;;;;;;;5.73;68.14;100061.00;5087444;28;19973;-67
2023/11/11 04:24:19;;;;;;;;;;;;;;;5.78;68.46;100062.81;5091656;28;19919;-68
2023/11/11 04:26:45;;;;;;;;;;;;;;;5.81;68.00;100070.59;5080121;28;19982;-68
2023/11/11 04:29:11;;;;;;;;;;;;;;;5.83;68.46;100056.00;5110922;27;19973;-67
2023/11/11 04:31:37;;;;;;;;;;;;;;;5.81;68.07;100055.97;5129878;27;19927;-68
2023/11/11 04:34:03;;;;;;;;;;;;;;;5.79;68.29;100054.22;5091506;28;20462;-67
2023/11/11 04:36:29;;;;;;;;;;;;;;;5.77;67.91;100046.44;5109682;27;20072;-68
2023/11/11 04:38:55;;;;;;;;;;;;;;;5.72;67.76;100061.00;5093021;28;19926;-68
2023/11/11 04:41:23;;;;;;;;;;;;;;;5.71;68.13;100057.53;5092354;28;19923;-68
2023/11/11 04:43:51;;;;;;;;;;;;;;;5.77;68.06;100059.34;5093687;28;20331;-68
2023/11/11 04:46:17;;;;;;;;;;;;;;;5.81;68.13;100058.53;5076973;28;19976;-67
2023/11/11 04:48:43;;;;;;;;;;;;;;;5.85;68.48;100059.44;5084739;28;20011;-68
2023/11/11 04:51:09;;;;;;;;;;;;;;;5.85;68.15;100064.63;5092921;28;20153;-68
2023/11/11 04:53:35;;;;;;;;;;;;;;;5.84;68.35;100063.75;5127497;27;19924;-68
2023/11/11 04:56:04;;;;;;;;;;;;;;;5.83;68.49;100068.91;5092985;28;19945;-68
2023/11/11 04:58:29;;;;;;;;;;;;;;;5.85;68.53;100068.09;5091892;28;19924;-69
2023/11/11 05:00:55;;;;;;;;;;;;;;;5.91;68.34;100075.03;5073476;28;20305;-68
2023/11/11 05:03:21;;;;;;;;;;;;;;;5.97;68.73;100069.09;5073947;28;19924;-68
2023/11/11 05:05:46;;;;;;;;;;;;;;;6.00;68.44;100072.63;5069562;28;20034;-67
2023/11/11 05:08:12;;;;;;;;;;;;;;;5.97;68.40;100077.72;5091604;28;20366;-68
2023/11/11 05:10:39;;;;;;;;;;;;;;;6.00;68.48;100067.47;5075850;28;20363;-68
2023/11/11 05:13:10;;;;;;;;;;;;;;;6.08;68.80;100074.44;5058834;28;20410;-67
2023/11/11 05:15:45;;;;;;;;;;;;;;;6.07;68.11;100071.00;5075640;28;19969;-67
2023/11/11 05:18:19;;;;;;;;;;;;;;;6.06;67.98;100078.75;5075515;28;19924;-68
2023/11/11 05:20:45;;;;;;;;;;;;;;;6.03;67.97;100072.69;5093263;28;19927;-67
2023/11/11 05:23:11;;;;;;;;;;;;;;;6.00;68.28;100082.09;5093617;28;19920;-67
2023/11/11 05:25:37;;;;;;;;;;;;;;;6.01;67.94;100079.53;5091294;28;20297;-68
2023/11/11 05:28:03;;;;;;;;;;;;;;;6.01;68.71;100070.91;5089587;28;19924;-69
2023/11/11 05:30:29;;;;;;;;;;;;;;;6.07;68.58;100072.72;5089041;28;19919;-69
2023/11/11 05:32:55;;;;;;;;;;;;;;;6.07;68.24;100068.41;5094475;28;20346;-68
2023/11/11 05:35:20;;;;;;;;;;;;;;;6.08;68.20;100079.59;5092099;28;19920;-68
2023/11/11 05:37:47;;;;;;;;;;;;;;;6.07;68.46;100078.75;5092609;28;19924;-69
2023/11/11 05:40:18;;;;;;;;;;;;;;;6.06;68.45;100076.16;5065691;28;19926;-68
2023/11/11 05:42:46;;;;;;;;;;;;;;;6.05;68.14;100084.75;5060217;28;19955;-69
2023/11/11 05:45:17;;;;;;;;;;;;;;;6.05;68.30;100090.78;5093017;28;19980;-69
2023/11/11 05:47:43;;;;;;;;;;;;;;;6.05;68.46;100085.59;5074887;28;20385;-68
2023/11/11 05:50:09;;;;;;;;;;;;;;;6.06;68.67;100082.19;5092097;28;19958;-67
2023/11/11 05:52:35;;;;;;;;;;;;;;;6.10;68.17;100080.50;5092846;28;19935;-68
2023/11/11 05:55:01;;;;;;;;;;;;;;;6.10;68.48;100088.25;5058115;28;19920;-67
2023/11/11 05:57:26;;;;;;;;;;;;;;;5.98;68.03;100066.53;5072415;28;20313;-68
2023/11/11 05:59:52;;;;;;;;;;;;;;;6.13;68.29;100091.75;5080205;28;19927;-68
2023/11/11 06:02:18;;;;;;;;;;;;;;;6.23;68.24;100094.47;5057091;28;20014;-68
2023/11/11 06:04:45;;;;;;;;;;;;;;;6.29;68.43;100095.41;5100982;28;19924;-68
2023/11/11 06:07:12;;;;;;;;;;;;;;;6.35;68.27;100099.81;5108930;27;20298;-68
2023/11/11 06:09:39;;;;;;;;;;;;;;;6.37;68.12;100097.22;5091112;28;19958;-69
2023/11/11 06:12:05;;;;;;;;;;;;;;;6.39;68.24;100095.53;5091550;28;19981;-69
2023/11/11 06:14:30;;;;;;;;;;;;;;;6.41;68.03;100094.69;5090858;28;20374;-69
2023/11/11 06:16:57;;;;;;;;;;;;;;;6.42;68.10;100100.75;5090045;28;20374;-68
2023/11/11 06:19:24;;;;;;;;;;;;;;;6.45;68.28;100108.56;5088607;28;20465;-68
2023/11/11 06:21:50;;;;;;;;;;;;;;;6.47;68.28;100112.88;5078316;28;19919;-69
2023/11/11 06:24:18;;;;;;;;;;;;;;;6.50;67.70;100106.91;5089638;28;19919;-68
2023/11/11 06:26:44;;;;;;;;;;;;;;;6.55;68.08;100104.38;5091625;28;19931;-68
2023/11/11 06:29:10;;;;;;;;;;;;;;;6.58;67.67;100113.00;5088909;28;19955;-68
2023/11/11 06:31:36;;;;;;;;;;;;;;;6.59;67.49;100117.34;5089264;28;19973;-68
2023/11/11 06:34:05;;;;;;;;;;;;;;;6.66;68.01;100109.66;5056028;28;19987;-68
2023/11/11 06:36:31;;;;;;;;;;;;;;;6.70;67.14;100116.63;5073731;28;19927;-68
2023/11/11 06:38:56;;;;;;;;;;;;;;;6.67;67.69;100107.09;5093279;28;19919;-69
2023/11/11 06:41:23;;;;;;;;;;;;;;;6.68;67.36;100100.22;5125311;27;19964;-69
2023/11/11 06:43:48;;;;;;;;;;;;;;;6.69;67.27;100096.78;5091039;28;19955;-68
2023/11/11 06:46:15;;;;;;;;;;;;;;;6.73;67.87;100095.97;5091025;28;19970;-68
2023/11/11 06:48:41;;;;;;;;;;;;;;;6.74;67.33;100102.84;5071895;28;19920;-70
2023/11/11 06:51:07;;;;;;;;;;;;;;;6.75;67.50;100097.72;5092006;28;19931;-69
2023/11/11 06:53:33;;;;;;;;;;;;;;;6.85;67.64;100093.50;5092255;28;20339;-69
2023/11/11 06:55:59;;;;;;;;;;;;;;;7.00;67.54;100097.97;5106359;27;19924;-66
2023/11/11 06:58:25;;;;;;;;;;;;;;;7.11;67.36;100092.91;5123519;27;19920;-68
2023/11/11 07:00:51;;;;;;;;;;;;;;;7.31;67.41;100093.09;5091293;28;19972;-70
2023/11/11 07:03:17;;;;;;;;;;;;;;;7.51;67.16;100087.22;5073437;28;20010;-69
2023/11/11 07:05:46;;;;;;;;;;;;;;;7.67;66.87;100080.44;5106749;27;19995;-69
2023/11/11 07:08:20;;;;;;;;;;;;;;;7.77;66.41;100081.38;5109512;27;20364;-69
2023/11/11 07:10:46;;;;;;;;;;;;;;;7.70;66.52;100088.22;5062019;28;19924;-70
2023/11/11 07:13:12;;;;;;;;;;;;;;;7.64;66.30;100081.28;5096160;28;19919;-68
2023/11/11 07:15:38;;;;;;;;;;;;;;;7.62;66.35;100093.38;5089530;28;19967;-70
2023/11/11 07:18:07;;;;;;;;;;;;;;;7.46;66.13;100068.22;5075838;28;20033;-68
2023/11/11 07:20:32;;;;;;;;;;;;;;;7.49;66.19;100084.63;5076123;28;19966;-68
2023/11/11 07:22:59;;;;;;;;;;;;;;;7.49;66.43;100083.78;5123517;27;20022;-68
2023/11/11 07:25:26;;;;;;;;;;;;;;;7.53;66.15;100070.84;5107390;28;19920;-69
2023/11/11 07:27:52;;;;;;;;;;;;;;;7.63;66.05;100094.22;5072947;28;19938;-68
2023/11/11 07:30:18;;;;;;;;;;;;;;;7.66;65.99;100089.06;5073131;28;19920;-70
2023/11/11 07:32:48;;;;;;;;;;;;;;;7.76;66.02;100090.88;5088435;28;19981;-67
2023/11/11 07:35:15;;;;;;;;;;;;;;;7.89;66.02;100085.78;5077909;28;19924;-68
2023/11/11 07:37:46;;;;;;;;;;;;;;;8.05;66.20;100090.22;5078940;28;19942;-68
2023/11/11 07:40:14;;;;;;;;;;;;;;;8.19;65.72;100079.06;5068206;28;19919;-69
2023/11/11 07:42:41;;;;;;;;;;;;;;;8.38;65.62;100086.06;5070647;28;20381;-69
2023/11/11 07:45:07;;;;;;;;;;;;;;;8.54;65.41;100086.16;5090307;28;20053;-69
2023/11/11 07:47:33;;;;;;;;;;;;;;;8.53;65.11;100092.19;5089511;28;19927;-69
2023/11/11 07:49:58;;;;;;;;;;;;;;;8.35;64.54;100080.00;5089697;28;20012;-70
2023/11/11 07:52:25;;;;;;;;;;;;;;;8.32;64.73;100078.25;5062068;28;19926;-70
2023/11/11 07:54:50;;;;;;;;;;;;;;;8.29;64.68;100081.69;5083337;28;19923;-69
2023/11/11 07:57:19;;;;;;;;;;;;;;;8.40;65.00;100081.75;5127139;27;19934;-69
2023/11/11 07:59:51;;;;;;;;;;;;;;;8.72;64.16;100085.34;5093825;28;19924;-70
2023/11/11 08:02:17;;;;;;;;;;;;;;;8.99;64.31;100073.31;5110103;27;19920;-69
2023/11/11 08:04:43;;;;;;;;;;;;;;;9.02;64.14;100081.13;5093470;28;19966;-69
2023/11/11 08:07:11;;;;;;;;;;;;;;;9.00;63.82;100078.50;5075889;28;19924;-68
2023/11/11 08:09:39;;;;;;;;;;;;;;;8.77;63.90;100086.25;5092691;28;19919;-69
2023/11/11 08:12:05;;;;;;;;;;;;;;;8.56;63.37;100089.63;5094889;28;19923;-70
2023/11/11 08:14:31;;;;;;;;;;;;;;;8.40;63.55;100089.53;5091103;28;20386;-69
2023/11/11 08:17:02;;;;;;;;;;;;;;;8.33;63.26;100099.88;5076512;28;19920;-70
2023/11/11 08:19:30;;;;;;;;;;;;;;;8.17;63.36;100089.38;5092606;28;20603;-69
2023/11/11 08:21:58;;;;;;;;;;;;;;;8.14;63.92;100087.66;5094409;28;20435;-70
2023/11/11 08:24:25;;;;;;;;;;;;;;;8.15;63.90;100075.59;5093630;28;19924;-69
2023/11/11 08:26:58;;;;;;;;;;;;;;;8.24;64.33;100078.22;5077564;28;20401;-70
2023/11/11 08:29:52;;;;;;;;;;;;;;;8.35;64.00;100082.59;5079385;28;19965;-69
2023/11/11 08:32:22;;;;;;;;;;;;;;;8.36;63.83;100086.91;5092885;28;19920;-70
2023/11/11 08:34:48;;;;;;;;;;;;;;;8.35;63.67;100080.84;5064571;28;19935;-70
2023/11/11 08:37:19;;;;;;;;;;;;;;;8.38;63.90;100080.03;5066421;28;19920;-70
2023/11/11 08:39:45;;;;;;;;;;;;;;;8.42;63.41;100079.16;5078179;28;19920;-70
2023/11/11 08:42:14;;;;;;;;;;;;;;;8.44;63.21;100080.91;5075850;28;19945;-70
2023/11/11 08:44:40;;;;;;;;;;;;;;;8.43;63.35;100076.56;5077370;28;19927;-69
2023/11/11 08:47:15;;;;;;;;;;;;;;;8.44;63.67;100067.94;5078326;28;20367;-69
2023/11/11 08:49:41;;;;;;;;;;;;;;;8.52;63.40;100062.81;5079115;28;19924;-70
2023/11/11 08:52:11;;;;;;;;;;;;;;;8.53;63.21;100068.84;5075538;28;19967;-70
2023/11/11 08:54:41;;;;;;;;;;;;;;;8.43;63.18;100060.13;5094177;28;20326;-71
2023/11/11 08:57:18;;;;;;;;;;;;;;;8.44;63.51;100067.06;5085668;28;19924;-69
2023/11/11 08:59:44;;;;;;;;;;;;;;;8.39;63.22;100053.19;5090790;28;19959;-69
2023/11/11 09:02:09;;;;;;;;;;;;;;;8.35;63.29;100061.84;5075340;28;19976;-69
2023/11/11 09:04:36;;;;;;;;;;;;;;;8.34;63.34;100048.00;5059943;28;20018;-69
2023/11/11 09:07:02;;;;;;;;;;;;;;;8.39;63.11;100056.66;5092866;28;19924;-70
2023/11/11 09:09:30;;;;;;;;;;;;;;;8.40;63.18;100052.34;5075285;28;21223;-70
2023/11/11 09:11:56;;;;;;;;;;;;;;;8.48;62.81;100052.41;5093377;28;19920;-70
2023/11/11 09:14:29;;;;;;;;;;;;;;;8.47;63.20;100045.47;5127425;27;19963;-72
2023/11/11 09:16:57;;;;;;;;;;;;;;;8.46;62.87;100048.94;5057437;28;20441;-69
2023/11/11 09:19:29;;;;;;;;;;;;;;;8.50;63.09;100043.78;5081595;28;19920;-70
2023/11/11 09:21:55;;;;;;;;;;;;;;;8.60;63.09;100044.66;5073184;28;19924;-70
2023/11/11 09:24:23;;;;;;;;;;;;;;;8.71;63.02;100035.22;5074438;28;19920;-70
2023/11/11 09:26:51;;;;;;;;;;;;;;;8.82;62.76;100036.94;5074752;28;19927;-71
2023/11/11 09:29:17;;;;;;;;;;;;;;;8.85;62.60;100040.41;5090524;28;20019;-70
2023/11/11 09:31:46;;;;;;;;;;;;;;;8.86;62.57;100029.16;5091117;28;19947;-70
2023/11/11 09:34:12;;;;;;;;;;;;;;;8.94;62.75;100031.75;5108406;27;19919;-70
2023/11/11 09:36:41;;;;;;;;;;;;;;;8.97;62.36;100026.59;5090756;28;19973;-69
2023/11/11 09:39:08;;;;;;;;;;;;;;;8.98;62.64;100023.13;5091187;28;20366;-70
2023/11/11 09:41:38;;;;;;;;;;;;;;;9.01;62.59;100025.72;5109460;27;19926;-70
2023/11/11 09:44:03;;;;;;;;;;;;;;;8.95;61.85;100033.50;5097009;28;20013;-68
2023/11/11 09:46:33;;;;;;;;;;;;;;;9.01;62.10;100033.50;5113783;27;19973;-68
2023/11/11 09:49:00;;;;;;;;;;;;;;;8.99;61.70;100024.84;5088603;28;20955;-68
2023/11/11 09:51:29;;;;;;;;;;;;;;;9.08;62.01;100029.19;5061861;28;19966;-70
2023/11/11 09:53:55;;;;;;;;;;;;;;;9.22;62.10;100029.19;5074051;28;19927;-69
2023/11/11 09:56:23;;;;;;;;;;;;;;;9.30;62.27;100019.69;5090210;28;19919;-71
2023/11/11 09:58:49;;;;;;;;;;;;;;;9.33;61.97;100019.69;5089728;28;20030;-70
2023/11/11 10:01:15;;;;;;;;;;;;;;;9.35;61.63;100027.47;5091810;28;20061;-69
2023/11/11 10:03:41;;;;;;;;;;;;;;;9.37;61.79;100020.56;5073850;28;20425;-69
2023/11/11 10:06:09;;;;;;;;;;;;;;;9.49;61.65;100015.34;5124047;27;20000;-69
2023/11/11 10:08:35;;;;;;;;;;;;;;;9.61;61.71;100013.59;5075545;28;20637;-70
2023/11/11 10:11:01;;;;;;;;;;;;;;;9.70;61.05;100021.41;5098870;28;19927;-69
2023/11/11 10:13:27;;;;;;;;;;;;;;;9.66;61.09;100017.06;5093813;28;19931;-68
2023/11/11 10:16:11;;;;;;;;;;;;;;;9.59;60.93;100011.03;5076804;28;20311;-71
2023/11/11 10:18:41;;;;;;;;;;;;;;;9.33;60.96;100004.13;5093589;27;19924;-69
2023/11/11 10:21:07;;;;;;;;;;;;;;;9.31;61.00;100010.16;5093337;28;19920;-67
2023/11/11 10:23:33;;;;;;;;;;;;;;;9.30;60.91;100003.22;5093720;28;19926;-70
2023/11/11 10:25:58;;;;;;;;;;;;;;;9.25;60.99;100005.84;5092357;28;20259;-68
2023/11/11 10:28:24;;;;;;;;;;;;;;;9.28;61.08;100008.44;5092095;28;20003;-69
2023/11/11 10:30:53;;;;;;;;;;;;;;;9.39;60.72;100002.34;5092944;28;20325;-70
2023/11/11 10:33:19;;;;;;;;;;;;;;;9.57;61.42;100002.38;5107128;27;19927;-68
2023/11/11 10:35:47;;;;;;;;;;;;;;;9.74;61.20;99991.91;5090221;28;19927;-69
2023/11/11 10:38:13;;;;;;;;;;;;;;;9.86;60.07;99997.97;5057314;28;19946;-69
2023/11/11 10:40:42;;;;;;;;;;;;;;;9.82;60.45;99991.88;5090441;28;19919;-70
2023/11/11 10:43:08;;;;;;;;;;;;;;;9.87;60.31;99995.34;5089370;28;19976;-69
2023/11/11 10:45:35;;;;;;;;;;;;;;;9.86;60.56;99983.22;5092147;28;20163;-70
2023/11/11 10:48:01;;;;;;;;;;;;;;;9.97;60.78;99995.34;5106935;27;19965;-70
2023/11/11 10:50:30;;;;;;;;;;;;;;;10.01;60.08;99989.25;5073462;28;19984;-69
2023/11/11 10:52:56;;;;;;;;;;;;;;;9.99;60.26;99988.41;5125671;27;19919;-70
2023/11/11 10:55:26;;;;;;;;;;;;;;;9.98;59.81;99987.50;5075061;28;19920;-69
2023/11/11 10:57:52;;;;;;;;;;;;;;;9.99;59.99;99984.03;5108359;27;20006;-68
2023/11/11 11:00:20;;;;;;;;;;;;;;;10.02;59.62;99985.78;5089557;28;20023;-69
2023/11/11 11:02:48;;;;;;;;;;;;;;;9.99;59.75;99983.19;5074785;28;19919;-68
2023/11/11 11:05:22;;;;;;;;;;;;;;;9.97;59.44;99982.34;5075636;28;19930;-69
2023/11/11 11:07:52;;;;;;;;;;;;;;;9.96;59.43;99978.84;5059272;28;19959;-70
2023/11/11 11:10:28;;;;;;;;;;;;;;;9.90;59.52;99989.28;5094835;28;20494;-70
2023/11/11 11:12:56;;;;;;;;;;;;;;;9.83;59.79;99993.63;5076048;28;19959;-70
2023/11/11 11:15:22;;;;;;;;;;;;;;;9.79;59.39;99977.19;5091841;28;19920;-69
2023/11/11 11:17:51;;;;;;;;;;;;;;;9.76;59.07;99986.72;5072177;28;20724;-71
2023/11/11 11:20:26;;;;;;;;;;;;;;;9.75;59.10;99979.81;5079080;28;19920;-70
2023/11/11 11:22:57;;;;;;;;;;;;;;;9.65;59.44;99976.38;5091500;28;19919;-70
2023/11/11 11:25:44;;;;;;;;;;;;;;;9.61;59.68;99964.25;5095471;28;19920;-70
2023/11/11 11:28:10;;;;;;;;;;;;;;;9.60;59.90;99976.34;5090546;28;19924;-69
2023/11/11 11:30:46;;;;;;;;;;;;;;;9.60;59.32;99971.16;5090585;28;19970;-71
2023/11/11 11:33:14;;;;;;;;;;;;;;;9.51;59.29;99968.59;5089616;28;20355;-70
2023/11/11 11:35:43;;;;;;;;;;;;;;;9.53;59.86;99961.66;5109582;28;20434;-68
2023/11/11 11:38:09;;;;;;;;;;;;;;;9.50;59.38;99952.13;5106238;28;19924;-69
2023/11/11 11:40:36;;;;;;;;;;;;;;;9.52;59.57;99957.34;5079071;28;20393;-70
2023/11/11 11:43:11;;;;;;;;;;;;;;;9.54;59.98;99959.91;5106426;28;19920;-70
2023/11/11 11:45:37;;;;;;;;;;;;;;;9.56;59.24;99960.78;5089628;28;20375;-70
2023/11/11 11:48:27;;;;;;;;;;;;;;;9.53;59.45;99958.19;5090248;28;19924;-70
2023/11/11 11:51:11;;;;;;;;;;;;;;;9.42;59.58;99964.28;5075088;28;19943;-71
2023/11/11 11:53:44;;;;;;;;;;;;;;;9.32;59.22;99963.44;5095051;28;19956;-70
2023/11/11 11:56:11;;;;;;;;;;;;;;;9.23;59.88;99960.81;5078283;28;19927;-69
2023/11/11 11:58:47;;;;;;;;;;;;;;;9.16;59.91;99961.69;5106128;28;19924;-70
2023/11/11 12:01:24;;;;;;;;;;;;;;;9.07;60.00;99959.97;5107827;28;19920;-70
2023/11/11 12:03:54;;;;;;;;;;;;;;;8.98;60.06;99962.56;5092537;28;19924;-70
2023/11/11 12:06:20;;;;;;;;;;;;;;;8.90;59.95;99965.19;5087855;28;19928;-69
2023/11/11 12:08:50;;;;;;;;;;;;;;;8.82;59.99;99969.47;5081386;28;19938;-69
2023/11/11 12:11:24;;;;;;;;;;;;;;;8.78;60.54;99955.66;5090221;28;19973;-69
2023/11/11 12:13:50;;;;;;;;;;;;;;;8.79;60.09;99959.09;5074071;28;19927;-69
2023/11/11 12:16:17;;;;;;;;;;;;;;;8.75;60.34;99963.44;5055995;28;20018;-70
2023/11/11 12:18:42;;;;;;;;;;;;;;;8.68;60.35;99961.69;5071552;28;20338;-70
2023/11/11 12:21:08;;;;;;;;;;;;;;;8.62;60.47;99959.06;5071089;28;19958;-69
2023/11/11 12:23:34;;;;;;;;;;;;;;;8.56;60.36;99957.31;5106467;28;19920;-71
2023/11/11 12:26:01;;;;;;;;;;;;;;;8.53;60.57;99965.97;5070709;28;20409;-72
2023/11/11 12:28:28;;;;;;;;;;;;;;;8.52;60.53;99958.19;5105170;28;19981;-71
2023/11/11 12:31:03;;;;;;;;;;;;;;;8.49;60.26;99953.00;5105299;27;19951;-70
2023/11/11 12:33:30;;;;;;;;;;;;;;;8.49;60.70;99953.88;5076577;28;19932;-70
2023/11/11 12:35:55;;;;;;;;;;;;;;;8.49;60.76;99953.00;5079647;28;19920;-69
2023/11/11 12:38:22;;;;;;;;;;;;;;;8.47;60.85;99958.16;5075535;28;19926;-69
2023/11/11 12:40:50;;;;;;;;;;;;;;;8.42;60.82;99950.38;5092865;28;19973;-69
2023/11/11 12:43:17;;;;;;;;;;;;;;;8.39;60.89;99950.34;5096371;28;19924;-69
2023/11/11 12:45:47;;;;;;;;;;;;;;;8.35;60.89;99946.00;5060237;28;19959;-70
2023/11/11 12:48:16;;;;;;;;;;;;;;;8.34;60.70;99961.59;5082331;28;19968;-69